Time;durP1;ratioP1;P1;durP2;ratioP2;P2;SDS_P1;SDS_P2;PMS_P1;PMS_P2;Temp;Humidity;BMP_temperature;BMP_pressure;BME280_temperature;BME280_humidity;BME280_pressure;Samples;Min_cycle;Max_cycle;Signal;HPM_P1;HPM_P2
2022/09/13 00:01:31;;;;;;;8.60;6.10;;;;;;;9.85;95.79;96554.17;108105;1270;22746;-77
2022/09/13 00:04:03;;;;;;;9.40;5.70;;;;;;;9.82;95.84;96550.80;108087;1270;22584;-77
2022/09/13 00:06:34;;;;;;;5.80;4.40;;;;;;;9.82;95.86;96552.98;108121;1270;23853;-77
2022/09/13 00:09:06;;;;;;;7.20;4.70;;;;;;;9.75;95.63;96558.33;108009;1270;36925;-77
2022/09/13 00:11:37;;;;;;;7.30;5.10;;;;;;;9.63;95.33;96561.20;108064;1270;24147;-77
2022/09/13 00:14:09;;;;;;;7.30;4.60;;;;;;;9.52;95.56;96562.77;108047;1270;22733;-77
2022/09/13 00:16:41;;;;;;;7.20;4.10;;;;;;;9.43;95.55;96564.67;108117;1269;25156;-77
2022/09/13 00:19:12;;;;;;;5.30;4.10;;;;;;;9.35;95.72;96562.80;108039;1270;25428;-77
2022/09/13 00:21:43;;;;;;;6.60;4.90;;;;;;;9.29;95.76;96558.96;108118;1270;22538;-77
2022/09/13 00:24:14;;;;;;;5.20;4.70;;;;;;;9.25;95.79;96555.59;108114;1270;22562;-77
2022/09/13 00:26:45;;;;;;;6.70;4.50;;;;;;;9.25;95.68;96554.27;108108;1270;24010;-77
2022/09/13 00:29:17;;;;;;;6.20;4.90;;;;;;;9.19;95.62;96553.19;108021;1270;29970;-77
2022/09/13 00:31:50;;;;;;;7.80;5.40;;;;;;;9.17;95.79;96554.58;107994;1270;23300;-77
2022/09/13 00:34:21;;;;;;;8.30;5.90;;;;;;;9.19;96.29;96549.01;107975;1270;22537;-77
2022/09/13 00:36:52;;;;;;;8.40;5.70;;;;;;;9.22;96.57;96551.42;108000;1270;22546;-77
2022/09/13 00:39:23;;;;;;;7.30;6.20;;;;;;;9.28;97.02;96549.77;108024;1270;24254;-77
2022/09/13 00:41:54;;;;;;;6.40;4.90;;;;;;;9.33;97.04;96548.48;108077;1270;22670;-77
2022/09/13 00:44:53;;;;;;;7.10;5.40;;;;;;;9.30;96.92;96545.69;108106;1270;22602;-77
2022/09/13 00:47:32;;;;;;;7.90;6.40;;;;;;;9.28;97.73;96542.94;108156;1270;25377;-77
2022/09/13 00:50:11;;;;;;;8.80;6.00;;;;;;;9.38;98.17;96542.73;108047;1270;30741;-78
2022/09/13 00:52:46;;;;;;;8.80;7.10;;;;;;;9.43;98.44;96544.56;108082;1270;24105;-77
2022/09/13 00:55:21;;;;;;;10.30;6.40;;;;;;;9.52;98.88;96547.06;108104;1269;22556;-77
2022/09/13 00:57:54;;;;;;;8.90;6.70;;;;;;;9.59;99.12;96545.13;108137;1270;22554;-77
2022/09/13 01:00:25;;;;;;;8.80;6.90;;;;;;;9.66;99.25;96544.83;107957;1270;26093;-77
2022/09/13 01:03:01;;;;;;;9.00;7.30;;;;;;;9.73;99.34;96548.17;108045;1269;22545;-77
2022/09/13 01:05:37;;;;;;;10.80;6.80;;;;;;;9.76;99.25;96543.59;108099;1270;23075;-77
2022/09/13 01:08:16;;;;;;;8.20;6.40;;;;;;;9.74;99.11;96541.45;108067;1270;23401;-77
2022/09/13 01:10:49;;;;;;;10.00;7.70;;;;;;;9.72;99.19;96537.70;108037;1270;25083;-77
2022/09/13 01:13:23;;;;;;;9.80;7.40;;;;;;;9.71;99.17;96539.65;108101;1270;26542;-77
2022/09/13 01:15:54;;;;;;;10.80;7.40;;;;;;;9.69;99.23;96542.30;108124;1270;22536;-77
2022/09/13 01:18:26;;;;;;;9.90;7.40;;;;;;;9.64;99.25;96541.13;108027;1270;25450;-76
2022/09/13 01:21:36;;;;;;;9.30;7.50;;;;;;;9.58;99.27;96540.58;107978;1270;22556;-77
2022/09/13 01:24:37;;;;;;;10.80;7.70;;;;;;;9.50;99.25;96541.30;108031;1270;22563;-77
2022/09/13 01:27:26;;;;;;;;;;;;;;;9.45;99.55;96542.29;108031;1270;22508;-77
2022/09/13 01:30:16;;;;;;;8.90;7.10;;;;;;;9.41;99.62;96539.70;107941;1270;22894;-77
2022/09/13 01:33:13;;;;;;;10.10;7.60;;;;;;;9.36;99.66;96535.28;108087;1270;25457;-77
2022/09/13 01:35:57;;;;;;;10.40;7.50;;;;;;;9.31;99.90;96535.52;108066;1270;22753;-77
2022/09/13 01:38:47;;;;;;;10.30;7.90;;;;;;;9.27;99.80;96536.59;107899;1270;25484;-77
2022/09/13 01:41:22;;;;;;;;;;;;;;;9.24;100.00;96532.48;106992;1270;1418947;-77
2022/09/13 01:43:59;;;;;;;10.10;7.20;;;;;;;9.24;100.00;96533.37;108000;1270;25254;-77
2022/09/13 01:46:38;;;;;;;9.20;7.80;;;;;;;9.27;100.00;96534.41;108042;1270;24125;-77
2022/09/13 01:49:19;;;;;;;11.30;8.30;;;;;;;9.32;100.00;96535.73;107895;1270;33357;-77
2022/09/13 01:51:56;;;;;;;10.60;7.90;;;;;;;9.35;100.00;96536.77;108051;1268;25384;-77
2022/09/13 01:54:34;;;;;;;11.10;8.30;;;;;;;9.37;100.00;96530.04;108094;1270;22535;-77
2022/09/13 01:57:15;;;;;;;10.70;8.40;;;;;;;9.38;100.00;96530.20;108141;1270;25493;-77
2022/09/13 01:59:49;;;;;;;;;;;;;;;9.42;100.00;96532.50;108067;1270;29213;-77
2022/09/13 02:02:25;;;;;;;9.10;7.90;;;;;;;9.43;100.00;96528.05;108108;1270;22593;-77
2022/09/13 02:05:02;;;;;;;10.30;8.80;;;;;;;9.42;100.00;96530.32;107999;1270;22532;-77
2022/09/13 02:07:40;;;;;;;9.10;8.00;;;;;;;9.40;100.00;96532.93;108080;1270;22527;-77
2022/09/13 02:10:17;;;;;;;10.20;8.40;;;;;;;9.37;100.00;96524.64;107911;1270;33132;-77
2022/09/13 02:12:51;;;;;;;10.80;9.20;;;;;;;9.39;100.00;96523.83;108068;1270;22615;-77
2022/09/13 02:15:26;;;;;;;12.00;9.10;;;;;;;9.40;100.00;96521.34;107993;1270;25366;-77
2022/09/13 02:18:06;;;;;;;12.90;9.20;;;;;;;9.39;100.00;96522.88;108098;1270;24278;-77
2022/09/13 02:20:41;;;;;;;11.90;9.30;;;;;;;9.42;100.00;96519.65;107961;1270;34258;-77
2022/09/13 02:23:17;;;;;;;11.70;9.20;;;;;;;9.51;100.00;96517.00;108011;1270;22530;-77
2022/09/13 02:25:52;;;;;;;10.40;8.60;;;;;;;9.51;100.00;96518.39;108036;1270;22490;-77
2022/09/13 02:28:35;;;;;;;11.60;8.90;;;;;;;9.44;100.00;96515.30;108067;1270;32603;-76
2022/09/13 02:31:12;;;;;;;10.00;8.50;;;;;;;9.43;100.00;96513.52;108105;1268;24262;-77
2022/09/13 02:33:50;;;;;;;11.50;10.00;;;;;;;9.43;100.00;96507.58;108110;1270;24234;-77
2022/09/13 02:36:28;;;;;;;10.40;8.90;;;;;;;9.39;100.00;96509.77;108032;1270;22593;-77
2022/09/13 02:39:03;;;;;;;10.50;9.20;;;;;;;9.30;100.00;96507.50;108024;1269;35787;-77
2022/09/13 02:41:42;;;;;;;12.80;9.20;;;;;;;9.24;100.00;96505.81;107979;1270;22542;-77
2022/09/13 02:44:16;;;;;;;12.80;10.00;;;;;;;9.21;100.00;96499.16;107988;1269;22780;-77
2022/09/13 02:47:06;;;;;;;10.70;9.00;;;;;;;9.20;100.00;96498.73;108086;1270;22560;-77
2022/09/13 02:49:42;;;;;;;;;;;;;;;9.20;100.00;96498.59;108049;1270;29984;-77
2022/09/13 02:52:24;;;;;;;11.30;9.20;;;;;;;9.24;100.00;96497.34;108053;1270;22561;-77
2022/09/13 02:55:01;;;;;;;10.60;9.00;;;;;;;9.18;100.00;96493.52;108088;1270;22547;-77
2022/09/13 02:57:37;;;;;;;10.80;8.70;;;;;;;9.14;100.00;96494.85;108095;1270;23888;-77
2022/09/13 03:00:10;;;;;;;11.20;9.20;;;;;;;9.14;100.00;96493.00;108036;1270;25408;-77
2022/09/13 03:02:44;;;;;;;13.00;10.10;;;;;;;9.13;100.00;96489.73;108053;1270;22536;-77
2022/09/13 03:05:15;;;;;;;10.90;9.70;;;;;;;9.19;100.00;96491.71;108088;1269;22992;-77
2022/09/13 03:07:47;;;;;;;10.80;8.90;;;;;;;9.25;100.00;96489.20;108109;1270;25367;-77
2022/09/13 03:10:19;;;;;;;13.80;9.70;;;;;;;9.18;100.00;96486.60;108025;1270;25986;-77
2022/09/13 03:13:03;;;;;;;11.50;9.80;;;;;;;9.17;100.00;96487.56;108086;1270;26593;-77
2022/09/13 03:15:51;;;;;;;11.40;9.70;;;;;;;9.22;100.00;96482.98;108010;1270;22534;-77
2022/09/13 03:18:41;;;;;;;10.70;9.50;;;;;;;9.25;100.00;96480.62;107961;1270;42307;-76
2022/09/13 03:21:23;;;;;;;12.10;10.00;;;;;;;9.23;100.00;96480.05;108102;1270;25239;-77
2022/09/13 03:24:06;;;;;;;11.80;9.40;;;;;;;9.22;100.00;96481.45;108041;1270;22563;-77
2022/09/13 03:26:46;;;;;;;12.50;9.10;;;;;;;9.18;100.00;96480.36;108028;1270;22607;-77
2022/09/13 03:29:28;;;;;;;12.50;9.60;;;;;;;9.13;100.00;96480.00;108022;1269;31042;-77
2022/09/13 03:32:17;;;;;;;11.90;9.40;;;;;;;9.14;100.00;96474.27;108132;1270;26029;-77
2022/09/13 03:34:53;;;;;;;10.80;9.70;;;;;;;9.24;100.00;96472.75;107985;1270;22558;-77
2022/09/13 03:37:32;;;;;;;11.20;9.60;;;;;;;9.38;100.00;96470.30;108074;1270;22688;-77
2022/09/13 03:40:10;;;;;;;11.20;10.00;;;;;;;9.54;100.00;96467.02;107964;1270;23842;-77
2022/09/13 03:42:49;;;;;;;10.50;9.40;;;;;;;9.64;100.00;96465.27;107981;1270;23243;-77
2022/09/13 03:45:26;;;;;;;12.10;10.00;;;;;;;9.65;100.00;96466.73;108085;1270;26436;-77
2022/09/13 03:47:58;;;;;;;10.40;9.30;;;;;;;9.64;100.00;96465.21;108082;1270;26565;-77
2022/09/13 03:50:30;;;;;;;9.20;7.60;;;;;;;9.64;100.00;96462.83;108001;1270;28298;-77
2022/09/13 03:53:06;;;;;;;11.40;9.00;;;;;;;9.69;100.00;96464.86;108042;1270;22627;-77
2022/09/13 03:55:41;;;;;;;12.10;9.10;;;;;;;9.72;100.00;96461.92;108084;1270;23811;-77
2022/09/13 03:58:19;;;;;;;10.30;9.00;;;;;;;9.76;100.00;96459.89;108010;1270;23320;-77
2022/09/13 04:00:52;;;;;;;10.30;8.80;;;;;;;9.75;100.00;96455.83;107981;1270;22556;-77
2022/09/13 04:03:23;;;;;;;11.50;9.20;;;;;;;9.76;100.00;96453.01;108117;1268;23279;-77
2022/09/13 04:05:54;;;;;;;10.50;9.10;;;;;;;9.77;100.00;96463.06;108066;1270;23885;-77
2022/09/13 04:08:25;;;;;;;12.70;8.50;;;;;;;9.76;100.00;96455.66;107975;1270;29373;-76
2022/09/13 04:10:57;;;;;;;9.90;8.40;;;;;;;9.72;100.00;96460.08;107997;1270;22555;-77
2022/09/13 04:13:28;;;;;;;10.30;8.90;;;;;;;9.65;100.00;96461.29;108008;1270;22574;-77
2022/09/13 04:16:05;;;;;;;10.40;9.00;;;;;;;9.63;100.00;96460.67;107971;1270;22533;-77
2022/09/13 04:18:37;;;;;;;10.60;8.80;;;;;;;9.61;100.00;96456.67;108028;1270;24756;-77
2022/09/13 04:21:09;;;;;;;10.80;9.20;;;;;;;9.59;100.00;96463.40;108082;1270;22663;-77
2022/09/13 04:23:40;;;;;;;10.60;8.40;;;;;;;9.59;100.00;96460.97;108093;1270;23757;-77
2022/09/13 04:26:11;;;;;;;12.40;9.70;;;;;;;9.62;100.00;96460.63;108061;1270;22632;-77
2022/09/13 04:28:43;;;;;;;10.50;9.00;;;;;;;9.74;100.00;96458.20;108027;1268;31821;-77
2022/09/13 04:31:14;;;;;;;9.00;8.10;;;;;;;9.94;100.00;96457.00;108111;1268;23843;-77
2022/09/13 04:33:45;;;;;;;9.60;8.40;;;;;;;10.17;100.00;96452.73;108108;1268;22546;-77
2022/09/13 04:36:16;;;;;;;11.50;8.50;;;;;;;10.42;100.00;96451.34;108091;1267;24218;-77
2022/09/13 04:38:50;;;;;;;10.00;7.80;;;;;;;10.65;100.00;96447.88;108044;1268;23883;-77
2022/09/13 04:41:21;;;;;;;10.20;8.40;;;;;;;10.88;99.96;96443.41;108122;1268;24016;-77
2022/09/13 04:43:52;;;;;;;10.30;7.20;;;;;;;11.11;99.18;96440.32;108116;1267;22536;-77
2022/09/13 04:46:23;;;;;;;9.20;8.20;;;;;;;11.32;98.15;96439.40;108083;1267;24214;-77
2022/09/13 04:48:55;;;;;;;10.10;7.70;;;;;;;11.59;97.43;96438.91;108070;1268;30669;-77
2022/09/13 04:51:27;;;;;;;8.40;7.10;;;;;;;11.84;96.33;96435.16;108098;1267;23812;-78
2022/09/13 04:53:59;;;;;;;7.90;7.00;;;;;;;12.14;95.31;96439.60;108117;1267;22569;-78
2022/09/13 04:56:30;;;;;;;7.60;6.30;;;;;;;12.48;94.34;96436.26;108009;1270;23265;-77
2022/09/13 04:59:02;;;;;;;8.70;6.20;;;;;;;12.93;93.71;96427.88;108067;1267;27900;-77
2022/09/13 05:01:33;;;;;;;7.30;6.20;;;;;;;13.33;92.01;96425.52;108102;1268;22545;-78
2022/09/13 05:04:06;;;;;;;7.80;5.80;;;;;;;13.69;90.50;96424.59;108105;1267;22589;-78
2022/09/13 05:06:37;;;;;;;6.10;5.30;;;;;;;13.95;88.69;96423.33;108091;1268;22815;-78
2022/09/13 05:09:14;;;;;;;7.10;5.70;;;;;;;13.86;86.45;96423.09;108026;1268;27465;-77
2022/09/13 05:11:46;;;;;;;7.30;5.30;;;;;;;13.67;85.99;96421.19;108144;1267;24209;-78
2022/09/13 05:14:17;;;;;;;6.70;5.00;;;;;;;14.01;85.56;96420.20;108115;1267;22552;-78
2022/09/13 05:16:48;;;;;;;5.80;5.00;;;;;;;14.48;84.41;96425.11;108118;1268;22533;-78
2022/09/13 05:19:19;;;;;;;7.50;5.60;;;;;;;14.70;82.17;96424.84;108017;1268;33111;-78
2022/09/13 05:21:51;;;;;;;5.70;5.10;;;;;;;15.00;81.12;96423.42;108099;1268;22542;-78
2022/09/13 05:24:22;;;;;;;6.80;4.80;;;;;;;15.34;79.74;96430.98;108108;1268;24032;-78
2022/09/13 05:26:53;;;;;;;5.90;5.20;;;;;;;15.59;78.23;96431.90;108124;1268;22553;-78
2022/09/13 05:29:25;;;;;;;6.00;4.80;;;;;;;16.00;77.74;96428.34;108037;1268;25985;-78
2022/09/13 05:31:57;;;;;;;6.30;4.80;;;;;;;16.42;76.47;96429.11;108171;1268;22557;-79
2022/09/13 05:34:28;;;;;;;5.30;4.50;;;;;;;16.95;76.36;96432.89;108124;1268;22536;-78
2022/09/13 05:36:59;;;;;;;5.60;4.90;;;;;;;17.56;73.51;96435.20;108095;1267;22536;-78
2022/09/13 05:39:31;;;;;;;6.50;4.50;;;;;;;17.78;72.07;96435.55;108028;1268;34379;-78
2022/09/13 05:42:05;;;;;;;5.10;4.50;;;;;;;17.98;69.87;96434.66;108119;1267;24465;-79
2022/09/13 05:44:36;;;;;;;5.40;4.10;;;;;;;18.01;68.48;96439.02;108100;1268;22529;-79
2022/09/13 05:47:07;;;;;;;5.00;4.50;;;;;;;18.32;67.71;96437.48;108108;1267;23930;-78
2022/09/13 05:49:39;;;;;;;5.50;4.20;;;;;;;18.63;66.79;96435.52;108048;1268;26695;-78
2022/09/13 05:52:10;;;;;;;5.40;4.10;;;;;;;18.93;65.34;96437.50;108126;1268;22615;-79
2022/09/13 05:54:42;;;;;;;4.80;4.30;;;;;;;18.98;63.27;96439.33;108110;1268;25746;-79
2022/09/13 05:57:13;;;;;;;4.70;3.90;;;;;;;19.19;63.88;96434.02;108104;1267;22643;-79
2022/09/13 05:59:44;;;;;;;5.60;4.30;;;;;;;20.21;64.57;96431.25;108065;1268;31889;-79
2022/09/13 06:02:15;;;;;;;4.40;3.70;;;;;;;20.59;60.05;96430.63;108064;1270;22699;-79
2022/09/13 06:04:46;;;;;;;6.30;3.80;;;;;;;20.67;59.26;96432.08;108076;1268;23224;-79
2022/09/13 06:07:17;;;;;;;4.60;3.40;;;;;;;20.86;58.88;96429.77;108096;1267;22532;-79
2022/09/13 06:09:49;;;;;;;4.10;3.60;;;;;;;21.56;58.85;96432.84;108065;1268;33502;-78
2022/09/13 06:12:20;;;;;;;4.50;3.70;;;;;;;22.34;57.52;96433.40;108114;1267;25248;-79
2022/09/13 06:14:51;;;;;;;5.60;3.70;;;;;;;22.94;56.51;96437.90;108097;1268;23841;-79
2022/09/13 06:17:22;;;;;;;4.10;3.70;;;;;;;23.70;55.41;96443.36;108123;1268;23278;-79
2022/09/13 06:19:53;;;;;;;4.20;3.40;;;;;;;24.10;54.15;96447.48;108000;1268;39826;-79
2022/09/13 06:22:32;;;;;;;5.20;3.60;;;;;;;24.42;52.45;96450.20;108079;1267;23996;-79
2022/09/13 06:25:04;;;;;;;7.60;3.70;;;;;;;24.53;51.68;96452.92;108101;1267;25545;-79
2022/09/13 06:27:35;;;;;;;3.70;3.40;;;;;;;24.96;51.35;96451.00;108071;1270;24195;-79
2022/09/13 06:30:14;;;;;;;3.70;3.40;;;;;;;25.73;50.39;96447.19;108034;1268;26998;-80
2022/09/13 06:32:45;;;;;;;4.50;3.50;;;;;;;26.01;47.08;96452.54;108117;1268;22526;-80
2022/09/13 06:35:17;;;;;;;3.70;3.30;;;;;;;25.74;47.49;96455.59;108114;1268;22571;-79
2022/09/13 06:37:48;;;;;;;3.70;3.10;;;;;;;25.89;46.50;96454.42;108082;1268;25338;-80
2022/09/13 06:40:21;;;;;;;4.30;3.10;;;;;;;26.07;46.95;96461.95;108064;1268;31076;-79
2022/09/13 06:42:55;;;;;;;3.20;2.90;;;;;;;26.41;45.25;96452.77;108086;1267;22556;-80
2022/09/13 06:45:26;;;;;;;3.90;3.60;;;;;;;26.50;44.63;96458.47;108107;1268;22526;-80
2022/09/13 06:47:57;;;;;;;4.60;3.50;;;;;;;26.95;45.35;96452.45;108063;1268;22868;-80
2022/09/13 06:50:28;;;;;;;5.20;3.00;;;;;;;27.76;44.78;96456.73;108081;1268;22829;-80
2022/09/13 06:53:00;;;;;;;4.60;3.40;;;;;;;28.26;43.32;96456.41;108076;1270;22705;-80
2022/09/13 06:55:33;;;;;;;3.90;3.50;;;;;;;28.09;41.30;96463.17;108103;1268;22529;-80
2022/09/13 06:58:04;;;;;;;4.60;3.00;;;;;;;27.89;41.08;96462.16;108122;1267;24184;-80
2022/09/13 07:00:36;;;;;;;3.90;3.20;;;;;;;28.08;41.13;96464.34;108052;1268;29721;-80
2022/09/13 07:03:07;;;;;;;3.60;3.20;;;;;;;28.50;40.89;96465.48;108067;1268;25093;-80
2022/09/13 07:05:38;;;;;;;3.40;3.10;;;;;;;28.92;40.04;96463.60;108093;1268;22763;-80
2022/09/13 07:08:10;;;;;;;4.20;2.80;;;;;;;28.93;39.79;96464.21;108114;1267;25494;-80
2022/09/13 07:10:41;;;;;;;4.00;3.10;;;;;;;29.11;39.15;96466.17;108029;1268;28389;-80
2022/09/13 07:13:13;;;;;;;3.20;2.70;;;;;;;28.95;38.47;96467.93;108101;1268;25900;-80
2022/09/13 07:15:44;;;;;;;5.30;2.90;;;;;;;28.91;38.99;96468.75;108131;1268;22646;-80
2022/09/13 07:18:15;;;;;;;3.70;3.00;;;;;;;29.53;39.03;96461.83;108108;1268;22768;-81
2022/09/13 07:20:46;;;;;;;3.20;2.90;;;;;;;30.27;38.39;96458.15;108122;1265;22590;-81
2022/09/13 07:23:17;;;;;;;3.30;2.90;;;;;;;30.45;36.92;96461.17;108113;1268;22881;-79
2022/09/13 07:26:00;;;;;;;4.10;3.00;;;;;;;29.82;36.70;96454.82;108118;1268;24424;-80
2022/09/13 07:28:37;;;;;;;3.00;2.80;;;;;;;29.87;36.76;96451.34;108038;1268;26484;-79
2022/09/13 07:31:10;;;;;;;3.90;3.50;;;;;;;29.95;36.27;96448.66;108123;1267;22615;-80
2022/09/13 07:33:43;;;;;;;4.80;3.00;;;;;;;30.30;36.57;96450.60;108025;1270;22545;-80
2022/09/13 07:36:15;;;;;;;3.40;2.90;;;;;;;30.51;36.11;96444.52;108050;1268;26564;-80
2022/09/13 07:38:47;;;;;;;2.80;2.60;;;;;;;31.16;35.97;96447.87;108025;1268;27330;-80
2022/09/13 07:41:20;;;;;;;3.80;2.60;;;;;;;31.27;35.46;96446.57;108116;1268;22585;-80
2022/09/13 07:43:52;;;;;;;3.20;2.40;;;;;;;31.90;35.25;96440.37;108132;1270;22530;-80
2022/09/13 07:46:25;;;;;;;2.00;1.80;;;;;;;31.96;33.81;96437.58;108115;1267;22536;-80
2022/09/13 07:48:58;;;;;;;2.50;2.10;;;;;;;31.81;33.85;96438.11;108022;1270;39480;-80
2022/09/13 07:51:30;;;;;;;3.20;2.00;;;;;;;31.98;33.61;96435.11;108017;1270;23014;-80
2022/09/13 07:54:04;;;;;;;2.20;2.00;;;;;;;32.31;33.31;96433.56;108023;1270;23944;-80
2022/09/13 07:56:37;;;;;;;2.90;2.70;;;;;;;32.46;32.74;96438.51;107900;1270;22547;-79
2022/09/13 07:59:12;;;;;;;2.70;2.50;;;;;;;32.36;32.11;96439.20;107928;1270;30435;-80
2022/09/13 08:01:44;;;;;;;2.50;2.10;;;;;;;31.87;31.92;96435.25;108055;1270;25117;-81
2022/09/13 08:04:18;;;;;;;2.80;2.00;;;;;;;31.13;31.28;96431.48;108044;1270;22618;-80
2022/09/13 08:06:50;;;;;;;2.90;2.10;;;;;;;30.44;31.91;96432.60;108106;1270;22881;-80
2022/09/13 08:09:23;;;;;;;2.80;2.60;;;;;;;30.24;32.70;96433.87;108005;1270;28035;-80
2022/09/13 08:11:55;;;;;;;2.70;2.50;;;;;;;29.89;32.92;96435.71;108058;1271;23003;-80
2022/09/13 08:14:26;;;;;;;2.20;2.00;;;;;;;29.94;32.33;96432.75;108140;1268;22533;-79
2022/09/13 08:16:58;;;;;;;2.70;1.80;;;;;;;30.06;32.62;96435.35;108123;1268;25476;-80
2022/09/13 08:19:29;;;;;;;2.10;1.80;;;;;;;30.49;32.16;96436.44;108062;1268;27705;-79
2022/09/13 08:22:01;;;;;;;2.00;1.80;;;;;;;31.03;31.47;96435.79;108150;1268;26543;-80
2022/09/13 08:24:32;;;;;;;2.10;1.60;;;;;;;30.93;30.95;96430.15;108107;1268;23882;-80
2022/09/13 08:27:03;;;;;;;3.90;1.60;;;;;;;30.44;30.54;96432.11;108088;1270;22890;-80
2022/09/13 08:29:34;;;;;;;1.60;1.50;;;;;;;29.44;31.09;96428.52;108014;1267;28974;-80
2022/09/13 08:32:06;;;;;;;1.60;1.30;;;;;;;28.82;32.08;96426.86;108127;1267;22533;-80
2022/09/13 08:34:37;;;;;;;2.50;1.40;;;;;;;29.02;31.97;96420.02;108117;1268;25197;-80
2022/09/13 08:37:08;;;;;;;2.10;1.60;;;;;;;28.75;31.50;96416.84;108122;1268;22547;-80
2022/09/13 08:39:40;;;;;;;1.90;1.30;;;;;;;27.48;32.64;96415.40;108062;1267;24798;-79
2022/09/13 08:42:28;;;;;;;1.60;1.50;;;;;;;27.23;33.19;96419.27;108127;1268;22564;-79
2022/09/13 08:45:01;;;;;;;2.40;1.60;;;;;;;27.21;33.79;96414.29;108137;1268;24006;-79
2022/09/13 08:47:43;;;;;;;2.40;1.60;;;;;;;26.64;32.93;96411.77;108122;1267;23853;-80
2022/09/13 08:50:19;;;;;;;2.10;1.80;;;;;;;25.60;34.61;96410.59;108033;1267;33832;-80
2022/09/13 08:53:11;;;;;;;2.00;1.40;;;;;;;25.58;35.95;96413.13;108107;1268;24467;-80
2022/09/13 08:55:51;;;;;;;1.40;1.10;;;;;;;26.52;35.15;96410.30;108126;1268;22542;-79
2022/09/13 08:58:35;;;;;;;2.40;1.50;;;;;;;26.10;34.32;96417.71;108017;1268;38587;-79
2022/09/13 09:01:13;;;;;;;2.20;1.50;;;;;;;25.40;35.23;96417.14;108122;1268;22545;-79
2022/09/13 09:03:51;;;;;;;1.70;1.60;;;;;;;25.06;36.10;96419.64;108082;1268;25242;-80
2022/09/13 09:06:23;;;;;;;1.60;1.40;;;;;;;24.46;36.08;96415.90;108125;1268;26400;-80
2022/09/13 09:09:00;;;;;;;3.40;1.70;;;;;;;23.17;37.88;96412.69;108054;1268;31048;-79
2022/09/13 09:11:41;;;;;;;4.00;1.50;;;;;;;22.61;38.74;96411.94;108065;1271;24210;-80
2022/09/13 09:14:21;;;;;;;1.40;1.30;;;;;;;22.20;39.79;96409.36;108106;1267;25354;-80
2022/09/13 09:16:58;;;;;;;3.50;1.80;;;;;;;22.34;39.93;96406.91;108113;1268;22532;-80
2022/09/13 09:19:34;;;;;;;2.10;1.60;;;;;;;22.38;40.32;96403.67;108023;1268;30112;-80
2022/09/13 09:22:12;;;;;;;1.60;1.40;;;;;;;22.20;40.51;96403.20;108135;1268;24027;-80
2022/09/13 09:24:49;;;;;;;2.40;1.40;;;;;;;22.00;40.63;96401.58;108125;1268;22614;-80
2022/09/13 09:27:21;;;;;;;2.60;1.50;;;;;;;21.55;41.25;96392.34;108095;1268;23102;-80
2022/09/13 09:29:56;;;;;;;1.80;1.60;;;;;;;21.50;42.39;96391.77;108033;1268;29035;-79
2022/09/13 09:33:04;;;;;;;3.10;1.70;;;;;;;21.60;42.57;96386.98;108038;1271;24056;-80
2022/09/13 09:35:49;;;;;;;2.10;1.90;;;;;;;21.05;42.62;96386.24;107978;1271;22536;-79
2022/09/13 09:38:41;;;;;;;3.30;2.00;;;;;;;20.09;43.27;96385.78;108058;1271;26765;-79
2022/09/13 09:41:24;;;;;;;2.50;1.70;;;;;;;19.84;44.44;96383.81;108131;1268;22552;-80
2022/09/13 09:44:01;;;;;;;2.50;1.80;;;;;;;19.80;44.95;96386.16;108132;1268;22564;-80
2022/09/13 09:46:38;;;;;;;2.40;1.70;;;;;;;19.91;45.75;96382.47;108115;1268;22552;-79
2022/09/13 09:52:10;;;;;;;2.30;1.60;;;;;;;20.81;45.34;96375.76;108133;1268;22555;-79
2022/09/13 09:54:41;;;;;;;3.60;1.80;;;;;;;20.95;45.02;96372.83;108084;1271;22634;-80
2022/09/13 09:57:13;;;;;;;3.00;1.60;;;;;;;20.99;44.68;96373.79;108071;1271;23642;-80
2022/09/13 09:59:44;;;;;;;4.30;2.40;;;;;;;20.87;44.75;96372.59;108028;1272;33985;-80
2022/09/13 10:02:20;;;;;;;3.00;1.70;;;;;;;20.84;44.86;96366.05;108113;1268;23840;-80
2022/09/13 10:05:01;;;;;;;2.20;2.00;;;;;;;20.43;45.03;96362.89;108096;1271;22690;-80
2022/09/13 10:07:34;;;;;;;1.70;1.50;;;;;;;20.02;45.16;96370.84;108109;1268;23406;-80
2022/09/13 10:10:09;;;;;;;1.80;1.60;;;;;;;20.21;45.85;96369.27;108058;1268;24687;-80
2022/09/13 10:12:41;;;;;;;2.00;1.40;;;;;;;20.53;46.04;96364.31;108136;1268;22556;-80
2022/09/13 10:15:19;;;;;;;1.90;1.70;;;;;;;20.68;45.38;96367.16;108083;1268;24131;-79
2022/09/13 10:18:15;;;;;;;2.90;1.50;;;;;;;20.70;45.16;96361.65;108117;1268;25398;-80
2022/09/13 10:21:02;;;;;;;3.70;1.70;;;;;;;20.91;45.19;96362.80;108146;1268;22541;-79
2022/09/13 10:23:34;;;;;;;2.30;1.60;;;;;;;21.17;45.66;96356.09;108127;1269;24349;-79
2022/09/13 10:26:12;;;;;;;2.60;1.50;;;;;;;21.31;45.65;96348.56;108117;1268;23240;-79
2022/09/13 10:28:53;;;;;;;2.90;1.90;;;;;;;21.60;45.49;96344.52;108084;1268;24470;-79
2022/09/13 10:31:31;;;;;;;1.70;1.40;;;;;;;21.47;45.09;96340.63;108074;1271;22641;-80
2022/09/13 10:34:06;;;;;;;2.50;1.70;;;;;;;21.68;45.08;96334.41;108068;1271;22545;-79
2022/09/13 10:36:38;;;;;;;2.60;1.60;;;;;;;21.34;44.12;96333.04;108131;1271;23144;-80
2022/09/13 10:39:16;;;;;;;2.50;1.40;;;;;;;20.92;44.68;96331.36;108036;1271;31692;-80
2022/09/13 10:41:54;;;;;;;1.80;1.50;;;;;;;20.36;45.11;96325.79;108130;1271;22539;-79
2022/09/13 10:44:32;;;;;;;;;;;;;;;19.63;45.20;96342.14;108081;1271;25248;-79
2022/09/13 10:47:07;;;;;;;1.90;1.50;;;;;;;19.49;45.86;96343.88;108157;1268;23247;-80
2022/09/13 10:49:41;;;;;;;1.40;1.30;;;;;;;19.67;46.19;96346.01;108036;1268;32933;-79
2022/09/13 10:52:34;;;;;;;2.60;1.40;;;;;;;19.97;46.41;96346.20;108092;1268;22537;-79
2022/09/13 10:55:30;;;;;;;1.70;1.50;;;;;;;20.23;45.93;96338.53;108159;1271;23927;-79
2022/09/13 10:58:19;;;;;;;2.30;1.40;;;;;;;20.27;45.61;96336.35;108105;1268;22542;-79
2022/09/13 11:01:32;;;;;;;1.60;1.30;;;;;;;19.96;44.87;96333.09;108117;1268;22618;-79
2022/09/13 11:04:32;;;;;;;1.80;1.60;;;;;;;19.52;45.90;96337.20;108028;1271;24230;-79
2022/09/13 11:07:12;;;;;;;2.30;1.50;;;;;;;19.55;46.27;96336.23;108059;1271;23412;-79
2022/09/13 11:09:51;;;;;;;2.00;1.40;;;;;;;19.40;46.72;96338.45;107976;1271;39595;-79
2022/09/13 11:12:33;;;;;;;1.70;1.30;;;;;;;19.24;46.60;96337.92;108070;1271;22708;-79
2022/09/13 11:15:14;;;;;;;3.40;1.50;;;;;;;19.14;46.77;96341.64;108029;1271;22477;-79
2022/09/13 11:18:23;;;;;;;2.10;1.50;;;;;;;19.20;47.16;96330.23;108057;1271;22869;-79
2022/09/13 11:21:05;;;;;;;2.20;1.40;;;;;;;19.29;47.31;96326.72;107937;1271;22570;-79
2022/09/13 11:24:10;;;;;;;2.10;1.60;;;;;;;19.34;46.91;96318.93;108013;1271;24233;-79
2022/09/13 11:26:57;;;;;;;1.80;1.50;;;;;;;19.52;47.59;96311.93;107981;1271;23881;-79
2022/09/13 11:29:52;;;;;;;1.50;1.40;;;;;;;19.78;47.52;96307.79;107987;1271;25248;-79
2022/09/13 11:32:33;;;;;;;2.90;1.50;;;;;;;20.01;47.40;96300.02;107974;1271;22568;-79
2022/09/13 11:35:19;;;;;;;1.50;1.40;;;;;;;19.93;46.72;96297.27;108015;1270;22546;-79
2022/09/13 11:37:58;;;;;;;1.60;1.50;;;;;;;19.86;47.32;96302.92;108001;1271;23809;-79
2022/09/13 11:40:42;;;;;;;1.80;1.40;;;;;;;19.92;46.84;96302.63;107981;1269;25357;-79
2022/09/13 11:43:37;;;;;;;2.10;1.50;;;;;;;19.88;46.93;96299.23;107997;1271;24268;-79
2022/09/13 11:46:17;;;;;;;1.70;1.40;;;;;;;19.93;46.77;96295.51;107946;1271;22555;-79
2022/09/13 11:49:13;;;;;;;1.40;1.20;;;;;;;20.16;46.70;96294.92;107964;1271;28388;-79
2022/09/13 11:51:58;;;;;;;1.50;1.20;;;;;;;20.34;46.37;96289.52;107952;1271;22555;-79
2022/09/13 11:54:43;;;;;;;2.50;1.40;;;;;;;20.45;46.55;96290.18;108047;1271;22591;-79
2022/09/13 11:57:19;;;;;;;2.30;1.30;;;;;;;20.51;46.12;96282.09;108032;1271;25277;-79
2022/09/13 11:59:54;;;;;;;2.50;1.40;;;;;;;20.65;46.00;96275.88;107943;1271;23308;-79
2022/09/13 12:02:32;;;;;;;1.90;1.30;;;;;;;20.64;45.79;96276.46;108027;1270;23187;-79
2022/09/13 12:05:12;;;;;;;1.60;1.30;;;;;;;20.56;46.29;96269.61;107974;1270;22530;-79
2022/09/13 12:07:47;;;;;;;2.50;1.40;;;;;;;20.61;46.50;96271.62;108062;1271;22558;-79
2022/09/13 12:10:22;;;;;;;1.60;1.40;;;;;;;20.59;45.50;96264.12;107947;1271;23965;-79